• Join FlightAware (Why Join?)
  • Login
  • US Flag 
08:12AM EST


 

Airport Tracker/Info


-or-


 

Live Flight TrackerFlight Track Log ✈ EGF2867 ✈ 15-Apr-2014 ✈ KFWA - KDFW

Flight Track Log - Related Links

Times and Time Zones

All times are in EDT time to prevent confusion due to time zone crossing. See the EGF2867 flight status page for this flight to view local times or setup timezone preferences in your user account.

Time Position Orientation Groundspeed Altitude Reporting Facility
EDT Latitude Longitude Course Direction KTS MPH feet Rate Location/Type
07:26AM 41.0003 -85.2489 229° Southwest 177 204 3,000  Level Chicago Center
07:27AM 40.9478 -85.2925 212° Southwest 230 265 5,000 2,262 Climbing Chicago Center
07:28AM 40.8769 -85.3522 213° Southwest 244 281 7,600 2,262 Climbing Chicago Center
07:29AM 40.8206 -85.4083 217° Southwest 249 287 9,600 1,525 Climbing Chicago Center
07:30AM 40.7731 -85.4903 233° Southwest 273 314 10,700 1,131 Climbing Chicago Center
07:31AM 40.5677 -85.7568 229° Southwest  Level FlightAware Approximate
07:31AM 40.7136 -85.5697 225° Southwest 302 348 11,900  Level Chicago Center
07:32AM 40.6603 -85.6456 227° Southwest 306 352 13,100 1,659 Climbing Chicago Center
07:33AM 40.6042 -85.7269 228° Southwest 306 352 15,300 1,902 Climbing Chicago Center
07:34AM 40.5389 -85.8156 226° Southwest 284 327 17,000 1,328 Climbing Chicago Center
07:35AM 40.4828 -85.8942 227° Southwest 289 333 18,000 984 Climbing Chicago Center
07:36AM 40.4247 -85.9758 227° Southwest 304 350 19,000 1,122 Climbing Chicago Center
07:37AM 40.3656 -86.0581 227° Southwest 307 353 20,300 1,366 Climbing Chicago Center
07:38AM 40.3078 -86.1397 227° Southwest 307 353 21,800 1,525 Climbing Chicago Center
07:39AM 40.2500 -86.2186 226° Southwest 306 352 23,400 1,463 Climbing Chicago Center
07:40AM 40.1950 -86.2953 227° Southwest 296 341 24,800 1,415 Climbing Chicago Center
07:41AM 40.1411 -86.3694 226° Southwest 287 330 26,300 1,516 Climbing Chicago Center
07:41AM 40.1086 -86.4114 225° Southwest 281 323 27,200 1,389 Climbing Indianapolis Center
07:42AM 40.0583 -86.4806 226° Southwest 269 310 28,500 1,082 Climbing Indianapolis Center
07:43AM 40.0089 -86.5478 226° Southwest 265 305 29,400 1,024 Climbing Indianapolis Center
07:44AM 39.9489 -86.6303 227° Southwest 262 302 30,600 1,073 Climbing Indianapolis Center
07:45AM 39.8983 -86.6978 226° Southwest 263 303 31,600 984 Climbing Indianapolis Center
07:47AM 39.8475 -86.7667 226° Southwest 263 303 32,600 976 Climbing Indianapolis Center
07:48AM 39.7967 -86.8369 227° Southwest 265 305 33,600 927 Climbing Indianapolis Center
07:49AM 39.7453 -86.9064 226° Southwest 266 306 34,500 732 Climbing Indianapolis Center
07:50AM 39.6942 -86.9742 226° Southwest 266 306 35,100 585 Climbing Indianapolis Center
07:51AM 39.6317 -87.0578 226° Southwest 266 306 35,700 439 Climbing Indianapolis Center
07:52AM 39.5769 -87.1306 226° Southwest 276 318 36,000 146 Climbing Indianapolis Center
07:53AM 39.5217 -87.2058 226° Southwest 286 329 36,000  Level Indianapolis Center
07:54AM 39.4631 -87.2914 228° Southwest 307 353 36,000  Level Indianapolis Center
07:55AM 39.4119 -87.3894 236° Southwest 320 368 36,000  Level Indianapolis Center
07:56AM 39.3581 -87.4936 236° Southwest 335 386 36,000  Level Indianapolis Center
07:57AM 39.3008 -87.5986 235° Southwest 348 400 36,000  Level Indianapolis Center
07:58AM 39.2394 -87.7044 233° Southwest 359 413 36,000  Level Indianapolis Center
07:59AM 39.1700 -87.8317 235° Southwest 361 415 36,000  Level Indianapolis Center
08:00AM 39.1114 -87.9364 234° Southwest 361 415 36,000  Level Indianapolis Center
08:01AM 39.0536 -88.0425 235° Southwest 361 415 36,000  Level Indianapolis Center
08:02AM 38.9919 -88.1486 233° Southwest 359 413 36,000  Level Kansas City Center
08:03AM 38.9339 -88.2536 235° Southwest 360 414 36,000  Level Kansas City Center
08:04AM 38.8756 -88.3589 235° Southwest 360 414 36,000  Level Kansas City Center
08:05AM 38.8150 -88.4636 233° Southwest 360 414 36,000  Level Kansas City Center
08:06AM 38.7561 -88.5681 234° Southwest 360 414 36,000  Level Kansas City Center
08:07AM 38.6939 -88.6789 234° Southwest 360 414 36,000  Level Kansas City Center
08:08AM 38.6344 -88.7853 234° Southwest 362 417 36,000  Level Kansas City Center
08:09AM 38.5697 -88.8989 234° Southwest 365 420 36,000  Level Kansas City Center
08:10AM 38.5142 -88.9972 234° Southwest 369 425 36,000  Level Kansas City Center
08:11AM 38.4558 -89.0969 233° Southwest 367 422 36,000  Level Kansas City Center
08:12AM 38.3925 -89.2022 233° Southwest 368 423 36,000  Level Kansas City Center
08:13AM 38.3206 -89.3069 229° Southwest 375 432 36,000  Level Kansas City Center
08:14AM 38.2517 -89.4058 228° Southwest 376 433 36,000  Level Kansas City Center
08:15AM 38.1831 -89.5058 229° Southwest 375 432 36,000  Level Kansas City Center
08:16AM 38.1133 -89.6047 228° Southwest 375 432 36,000  Level Kansas City Center
08:17AM 38.0342 -89.7219 229° Southwest 375 432 36,000  Level Kansas City Center
08:18AM 37.9586 -89.8289 228° Southwest 375 432 36,000  Level Kansas City Center
08:19AM 37.8886 -89.9294 229° Southwest 376 433 36,000  Level Kansas City Center
08:20AM 37.8203 -90.0264 228° Southwest 379 436 36,000  Level Kansas City Center
08:21AM 37.7489 -90.1264 228° Southwest 379 436 36,000  Level Kansas City Center
08:22AM 37.6792 -90.2278 229° Southwest 379 436 36,000  Level Kansas City Center
08:23AM 37.6175 -90.3358 234° Southwest 379 436 36,000  Level Kansas City Center
08:24AM 37.5597 -90.4500 237° Southwest 380 437 36,000  Level Kansas City Center
08:25AM 37.5000 -90.5625 236° Southwest 382 440 36,000  Level Kansas City Center
08:26AM 37.4392 -90.6725 235° Southwest 383 441 36,000  Level Kansas City Center
08:27AM 37.3708 -90.7986 236° Southwest 383 441 36,000  Level Kansas City Center
08:28AM 37.3100 -90.9103 236° Southwest 383 441 36,000  Level Kansas City Center
08:29AM 37.2500 -91.0222 236° Southwest 384 442 36,000  Level Kansas City Center
08:30AM 37.1864 -91.1372 235° Southwest 388 447 36,000  Level Kansas City Center
08:31AM 37.1242 -91.2492 235° Southwest 391 450 36,000  Level Kansas City Center
08:32AM 37.0625 -91.3625 236° Southwest 391 450 36,000  Level Kansas City Center
08:33AM 37.0003 -91.4756 235° Southwest 391 450 36,000  Level Kansas City Center
08:35AM 36.9367 -91.5908 235° Southwest 394 453 36,000  Level Kansas City Center
08:36AM 36.8731 -91.7047 235° Southwest 394 453 36,000  Level Kansas City Center
08:37AM 36.7956 -91.8444 235° Southwest 401 461 36,000  Level Kansas City Center
08:38AM 36.7317 -91.9608 236° Southwest 401 461 36,000  Level Kansas City Center
08:39AM 36.6675 -92.0753 235° Southwest 401 461 36,000  Level Kansas City Center
08:40AM 36.6025 -92.1886 234° Southwest 401 461 36,000  Level Kansas City Center
08:41AM 36.5444 -92.2942 236° Southwest 401 461 36,000  Level Kansas City Center
08:42AM 36.4792 -92.4089 235° Southwest 404 465 36,000  Level Kansas City Center
08:43AM 36.4147 -92.5228 235° Southwest 404 465 36,000  Level Kansas City Center
08:44AM 36.3356 -92.6597 234° Southwest 405 466 36,000  Level Kansas City Center
08:45AM 36.2561 -92.7967 234° Southwest 407 468 36,000  Level Memphis Center
08:46AM 36.1892 -92.9119 234° Southwest 408 470 36,000  Level Memphis Center
08:47AM 36.1106 -93.0506 235° Southwest 413 475 36,000  Level Memphis Center
08:48AM 36.0428 -93.1631 233° Southwest 413 475 36,000  Level Memphis Center
08:49AM 35.9758 -93.2792 235° Southwest 413 475 36,000  Level Memphis Center
08:50AM 35.9089 -93.3939 234° Southwest 413 475 36,000  Level Memphis Center
08:51AM 35.8428 -93.5075 234° Southwest 413 475 36,000  Level Memphis Center
08:52AM 35.7619 -93.6450 234° Southwest 413 475 36,000  Level Memphis Center
08:53AM 35.6936 -93.7600 234° Southwest 414 476 36,000 -242 Level Memphis Center
08:54AM 35.6247 -93.8772 234° Southwest 420 483 35,500 -435 Descending Memphis Center
08:55AM 35.5536 -93.9964 234° Southwest 427 491 35,100 -435 Descending Memphis Center
08:56AM 35.4814 -94.1186 234° Southwest 437 503 34,600 -484 Descending Memphis Center
08:57AM 35.4097 -94.2386 234° Southwest 440 506 34,100 -532 Descending Memphis Center
08:58AM 35.3044 -94.3642 224° Southwest 444 511 33,500 -528 Descending Memphis Center
09:00AM 35.2097 -94.4672 222° Southwest 451 519 33,000 -432 Descending Memphis Center
09:01AM 35.1142 -94.5719 222° Southwest 459 528 32,600 -484 Descending Memphis Center
09:02AM 35.0000 -94.6936 221° Southwest 475 547 32,000 -290 Descending Memphis Center
09:03AM 34.8986 -94.8036 222° Southwest 481 554 32,000  Level Memphis Center
09:03AM 34.8331 -94.8739 221° Southwest 485 558 32,000  Level Fort Worth Center
09:04AM 34.7339 -94.9803 221° Southwest 481 554 32,000  Level Fort Worth Center
09:05AM 34.6128 -95.1106 222° Southwest 482 555 32,000 -1,113 Level Fort Worth Center
09:07AM 34.5114 -95.2169 221° Southwest 484 557 29,700 -2,371 Descending Fort Worth Center
09:08AM 34.4108 -95.3244 221° Southwest 484 557 27,100 -2,661 Descending Fort Worth Center
09:09AM 34.3125 -95.4292 221° Southwest 476 548 24,200 -1,500 Descending Fort Worth Center
09:10AM 34.2164 -95.5300 221° Southwest 463 533 24,000 -97 Descending Fort Worth Center
09:11AM 34.1125 -95.6381 221° Southwest 444 511 24,000  Level Fort Worth Center
09:12AM 34.0194 -95.7353 221° Southwest 459 528 24,000 -484 Level Fort Worth Center
09:13AM 33.9047 -95.8567 221° Southwest 459 528 23,000 -960 Descending Fort Worth Center
09:14AM 33.8075 -95.9550 220° Southwest 460 529 22,000 -1,296 Descending Fort Worth Center
09:15AM 33.7058 -96.0594 221° Southwest 452 520 20,300 -1,645 Descending Fort Worth Center
09:16AM 33.6142 -96.1550 221° Southwest 436 502 18,600 -1,355 Descending Fort Worth Center
09:17AM 33.5200 -96.2517 221° Southwest 412 474 17,500 -1,016 Descending Fort Worth Center
09:18AM 33.4428 -96.3461 226° Southwest 397 457 16,500 -823 Descending Fort Worth Center
09:19AM 33.3664 -96.4375 225° Southwest 364 419 15,800 -1,452 Descending Fort Worth Center
09:20AM 33.2956 -96.5228 225° Southwest 360 414 13,500 -2,274 Descending Fort Worth Center
09:21AM 33.2219 -96.6097 225° Southwest 346 398 11,100 -1,161 Descending Fort Worth Center
09:22AM 33.1639 -96.6803 226° Southwest 302 348 11,100  Level Fort Worth Center
09:23AM 33.1006 -96.7544 224° Southwest 300 345 11,100 -48 Level Fort Worth Center
09:24AM 33.0442 -96.8197 224° Southwest 282 325 11,000  Descending Fort Worth Center
09:25AM 32.9911 -96.8836 225° Southwest 265 305 11,100 -242 Climbing Fort Worth Center
09:26AM 32.9147 -96.9067 194° South 280 322 10,500 -968 Descending Fort Worth Center
09:27AM 32.8367 -96.9061 180° South 280 322 9,100 -1,355 Descending Fort Worth Center
09:28AM 32.7567 -96.9089 182° South 272 313 7,700 -1,500 Descending Fort Worth Center
09:29AM 32.6864 -96.9150 184° South 256 295 6,000 -1,597 Descending Fort Worth Center
09:30AM 32.6667 -96.9828 251° West 233 268 4,400 -1,016 Descending Fort Worth Center
09:31AM 32.7172 -97.0244 325° Northwest 202 232 3,900 -774 Descending Fort Worth Center
09:32AM 32.7722 -97.0272 358° North 201 231 2,800 -1,104 Descending Fort Worth Center
09:33AM 32.8278 -97.0272 360° North 187 215 1,600 -912 Descending Fort Worth Center
09:34AM 32.8672 -97.0261 North 146 168 900 -484 Descending Fort Worth Center
09:35AM 32.9017 -97.0292 356° North 141 162 600 -290 Descending Fort Worth Center